Time;durP1;ratioP1;P1;durP2;ratioP2;P2;SDS_P1;SDS_P2;PMS_P1;PMS_P2;Temp;Humidity;BMP_temperature;BMP_pressure;BME280_temperature;BME280_humidity;BME280_pressure;Samples;Min_cycle;Max_cycle;Signal;HPM_P1;HPM_P2
2021/12/01 00:01:19;;;;;;;24.03;15.17;;;;;;;;;;5115929;28;20202;-61
2021/12/01 00:03:47;;;;;;;28.00;18.80;;;;;;;;;;5115491;28;20198;-62
2021/12/01 00:06:14;;;;;;;15.17;10.80;;;;;;;;;;5115823;28;20197;-62
2021/12/01 00:08:41;;;;;;;24.67;15.77;;;;;;;;;;5115363;28;20736;-62
2021/12/01 00:11:08;;;;;;;12.97;8.67;;;;;;;;;;5115364;28;20202;-62
2021/12/01 00:13:36;;;;;;;19.47;11.00;;;;;;;;;;5115534;28;20220;-61
2021/12/01 00:16:08;;;;;;;19.07;11.43;;;;;;;;;;5097832;28;20208;-64
2021/12/01 00:18:35;;;;;;;20.13;12.37;;;;;;;;;;5115559;28;20187;-64
2021/12/01 00:21:03;;;;;;;16.13;11.83;;;;;;;;;;5115519;28;20206;-62
2021/12/01 00:23:30;;;;;;;16.03;9.67;;;;;;;;;;5106779;28;20572;-62
2021/12/01 00:25:57;;;;;;;17.83;11.83;;;;;;;;;;5115400;28;20198;-62
2021/12/01 00:28:25;;;;;;;13.60;8.80;;;;;;;;;;5115002;28;20642;-62
2021/12/01 00:30:52;;;;;;;19.80;8.87;;;;;;;;;;5115071;28;20194;-63
2021/12/01 00:33:23;;;;;;;10.03;7.10;;;;;;;;;;5096480;28;20263;-61
2021/12/01 00:35:53;;;;;;;17.13;11.23;;;;;;;;;;5115198;28;20194;-62
2021/12/01 00:38:22;;;;;;;19.83;9.40;;;;;;;;;;5115170;28;20380;-61
2021/12/01 00:40:50;;;;;;;14.50;10.63;;;;;;;;;;5115109;28;20553;-62
2021/12/01 00:43:18;;;;;;;11.10;7.67;;;;;;;;;;5096728;28;20194;-62
2021/12/01 00:46:10;;;;;;;10.50;7.43;;;;;;;;;;5114871;28;20216;-62
2021/12/01 00:48:38;;;;;;;15.90;11.53;;;;;;;;;;5114963;28;20186;-61
2021/12/01 00:51:05;;;;;;;9.33;6.13;;;;;;;;;;5114488;28;20672;-61
2021/12/01 00:53:33;;;;;;;11.77;5.87;;;;;;;;;;5096679;28;20226;-62
2021/12/01 00:56:00;;;;;;;13.27;8.23;;;;;;;;;;5114695;28;20208;-61
2021/12/01 00:58:28;;;;;;;12.67;7.53;;;;;;;;;;5114586;28;20198;-61
2021/12/01 01:00:55;;;;;;;14.47;8.73;;;;;;;;;;5114697;28;20225;-61
2021/12/01 01:03:23;;;;;;;13.63;8.13;;;;;;;;;;5114734;28;20553;-61
2021/12/01 01:05:51;;;;;;;12.40;7.57;;;;;;;;;;5114131;28;20225;-61
2021/12/01 01:08:19;;;;;;;16.00;9.57;;;;;;;;;;5114495;28;20198;-62
2021/12/01 01:16:23;;;;;;;15.13;9.60;;;;;;;;;;5114467;28;20190;-61
2021/12/01 01:19:02;;;;;;;17.50;11.83;;;;;;;;;;5114174;28;20193;-62
2021/12/01 01:21:33;;;;;;;14.80;9.37;;;;;;;;;;5114538;28;20327;-61
2021/12/01 01:24:01;;;;;;;17.17;11.73;;;;;;;;;;5114418;28;20236;-62
2021/12/01 01:26:30;;;;;;;12.47;8.70;;;;;;;;;;5114077;28;20276;-61
2021/12/01 01:28:58;;;;;;;17.57;10.77;;;;;;;;;;5114294;28;20202;-61
2021/12/01 01:31:25;;;;;;;15.57;10.57;;;;;;;;;;5113854;28;20660;-61
2021/12/01 01:33:53;;;;;;;14.23;9.20;;;;;;;;;;5113754;28;20669;-61
2021/12/01 01:36:21;;;;;;;12.47;8.53;;;;;;;;;;5114147;28;20202;-61
2021/12/01 01:38:48;;;;;;;18.27;10.67;;;;;;;;;;5114048;28;20211;-62
2021/12/01 01:41:16;;;;;;;16.17;9.27;;;;;;;;;;5114037;28;20201;-62
2021/12/01 01:43:46;;;;;;;16.77;11.07;;;;;;;;;;5113504;28;20278;-61
2021/12/01 01:46:14;;;;;;;19.27;9.50;;;;;;;;;;5112942;28;20200;-62
2021/12/01 01:48:53;;;;;;;15.83;9.60;;;;;;;;;;5113611;28;20204;-62
2021/12/01 01:51:26;;;;;;;18.37;9.53;;;;;;;;;;5113812;28;20186;-61
2021/12/01 01:53:56;;;;;;;20.23;11.07;;;;;;;;;;5113361;28;20274;-62
2021/12/01 01:56:25;;;;;;;20.10;11.30;;;;;;;;;;5095759;28;20194;-62
2021/12/01 01:58:53;;;;;;;17.60;10.10;;;;;;;;;;5113436;28;20228;-63
2021/12/01 02:01:43;;;;;;;15.00;8.93;;;;;;;;;;5095600;28;20247;-62
2021/12/01 02:04:18;;;;;;;15.77;8.50;;;;;;;;;;5113365;28;20312;-62
2021/12/01 02:06:47;;;;;;;17.40;9.80;;;;;;;;;;5113336;28;20225;-62
2021/12/01 02:09:21;;;;;;;15.07;8.80;;;;;;;;;;5113493;28;20208;-62
2021/12/01 02:11:49;;;;;;;23.03;12.00;;;;;;;;;;5113110;28;20703;-61
2021/12/01 02:14:16;;;;;;;12.70;7.17;;;;;;;;;;5113486;28;20198;-62
2021/12/01 02:16:43;;;;;;;15.23;8.80;;;;;;;;;;5113443;28;20255;-62
2021/12/01 02:19:11;;;;;;;13.47;8.13;;;;;;;;;;5095108;28;20194;-62
2021/12/01 02:21:39;;;;;;;13.87;7.27;;;;;;;;;;5095252;28;20247;-62
2021/12/01 02:24:09;;;;;;;15.83;9.03;;;;;;;;;;5113357;28;20233;-62
2021/12/01 02:26:44;;;;;;;19.10;9.93;;;;;;;;;;5113205;28;20265;-62
2021/12/01 02:29:14;;;;;;;15.53;7.77;;;;;;;;;;5113141;28;20189;-62
2021/12/01 02:31:43;;;;;;;13.57;8.23;;;;;;;;;;5113163;28;20214;-62
2021/12/01 02:34:14;;;;;;;17.73;9.10;;;;;;;;;;5113254;28;20205;-62
2021/12/01 02:36:44;;;;;;;19.47;13.53;;;;;;;;;;5113333;28;20206;-62
2021/12/01 02:39:13;;;;;;;22.40;13.30;;;;;;;;;;5112953;28;20664;-61
2021/12/01 02:41:40;;;;;;;19.17;11.77;;;;;;;;;;5112822;28;20618;-61
2021/12/01 02:44:09;;;;;;;18.07;10.43;;;;;;;;;;5112838;28;20204;-61
2021/12/01 02:46:37;;;;;;;16.70;9.53;;;;;;;;;;5113136;28;20198;-61
2021/12/01 02:49:06;;;;;;;19.83;11.60;;;;;;;;;;5112846;28;20544;-62
2021/12/01 02:51:36;;;;;;;19.53;11.80;;;;;;;;;;5112992;28;20535;-61
2021/12/01 02:54:05;;;;;;;16.17;9.73;;;;;;;;;;5112974;28;20234;-61
2021/12/01 02:56:34;;;;;;;23.53;12.87;;;;;;;;;;5114761;28;20198;-61
2021/12/01 02:59:03;;;;;;;17.00;10.77;;;;;;;;;;5117088;28;20289;-62
2021/12/01 03:01:31;;;;;;;17.80;10.30;;;;;;;;;;5117187;28;20193;-62
2021/12/01 03:03:59;;;;;;;12.40;7.60;;;;;;;;;;5116895;28;20206;-62
2021/12/01 03:06:27;;;;;;;23.20;11.27;;;;;;;;;;5116885;28;20640;-62
2021/12/01 03:08:56;;;;;;;15.07;8.80;;;;;;;;;;5116668;28;20194;-62
2021/12/01 03:11:25;;;;;;;20.47;11.13;;;;;;;;;;5116886;28;20205;-64
2021/12/01 03:13:55;;;;;;;15.67;9.60;;;;;;;;;;5116643;28;20300;-61
2021/12/01 03:16:23;;;;;;;18.17;10.47;;;;;;;;;;5116823;28;20209;-62
2021/12/01 03:18:51;;;;;;;14.33;9.33;;;;;;;;;;5116562;28;20202;-62
2021/12/01 03:21:20;;;;;;;13.00;7.90;;;;;;;;;;5116703;28;20193;-61
2021/12/01 03:23:48;;;;;;;16.00;8.00;;;;;;;;;;5116210;28;20198;-62
2021/12/01 03:26:15;;;;;;;24.30;12.80;;;;;;;;;;5116391;28;20660;-61
2021/12/01 03:28:43;;;;;;;17.00;9.90;;;;;;;;;;5116302;28;20202;-62
2021/12/01 03:31:10;;;;;;;17.37;10.07;;;;;;;;;;5116472;28;20204;-61
2021/12/01 03:33:37;;;;;;;20.30;13.03;;;;;;;;;;5115972;28;20225;-62
2021/12/01 03:36:05;;;;;;;16.13;10.70;;;;;;;;;;5116421;28;20205;-62
2021/12/01 03:38:32;;;;;;;21.30;11.57;;;;;;;;;;5116194;28;20201;-62
2021/12/01 03:41:00;;;;;;;32.43;19.30;;;;;;;;;;5116458;28;20198;-62
2021/12/01 03:43:27;;;;;;;23.27;14.50;;;;;;;;;;5116523;28;20202;-67
2021/12/01 03:45:55;;;;;;;24.93;14.87;;;;;;;;;;5115866;28;20197;-67
2021/12/01 03:48:23;;;;;;;21.60;11.47;;;;;;;;;;5115928;28;20653;-65
2021/12/01 03:50:51;;;;;;;20.63;11.33;;;;;;;;;;5116119;28;20594;-63
2021/12/01 03:53:20;;;;;;;17.67;11.20;;;;;;;;;;5115997;28;20249;-65
2021/12/01 03:55:47;;;;;;;16.83;10.20;;;;;;;;;;5115895;28;20199;-64
2021/12/01 03:58:15;;;;;;;20.90;12.97;;;;;;;;;;5097961;28;20202;-68
2021/12/01 04:00:43;;;;;;;20.17;11.47;;;;;;;;;;5115949;28;20209;-63
2021/12/01 04:03:10;;;;;;;20.03;10.43;;;;;;;;;;5097608;28;20600;-63
2021/12/01 04:05:38;;;;;;;16.50;9.03;;;;;;;;;;5115278;28;20232;-67
2021/12/01 04:08:07;;;;;;;20.90;11.67;;;;;;;;;;5114415;28;20217;-69
2021/12/01 04:10:34;;;;;;;14.70;9.27;;;;;;;;;;5115438;28;20560;-66
2021/12/01 04:13:02;;;;;;;20.80;10.33;;;;;;;;;;5115546;28;20288;-65
2021/12/01 04:15:30;;;;;;;22.47;12.93;;;;;;;;;;5097393;28;20202;-66
2021/12/01 04:17:58;;;;;;;21.93;12.57;;;;;;;;;;5115382;28;20687;-63
2021/12/01 04:20:26;;;;;;;24.53;14.53;;;;;;;;;;5115679;28;20202;-67
2021/12/01 04:22:53;;;;;;;25.87;13.63;;;;;;;;;;5115515;28;20199;-65
2021/12/01 04:25:21;;;;;;;22.87;12.40;;;;;;;;;;5115452;28;20201;-64
2021/12/01 04:27:48;;;;;;;26.57;14.87;;;;;;;;;;5115262;28;20656;-62
2021/12/01 04:30:19;;;;;;;23.30;12.53;;;;;;;;;;5115063;28;20289;-63
2021/12/01 04:32:47;;;;;;;22.50;11.20;;;;;;;;;;5114944;28;20218;-63
2021/12/01 04:35:19;;;;;;;19.37;10.87;;;;;;;;;;5115010;28;20555;-63
2021/12/01 04:37:47;;;;;;;23.23;11.90;;;;;;;;;;5115080;28;20281;-62
2021/12/01 04:40:14;;;;;;;18.63;9.63;;;;;;;;;;5115177;28;20212;-67
2021/12/01 04:42:43;;;;;;;21.93;12.67;;;;;;;;;;5115094;28;20529;-64
2021/12/01 04:45:15;;;;;;;17.17;9.87;;;;;;;;;;5097069;28;20194;-64
2021/12/01 04:47:44;;;;;;;26.13;13.70;;;;;;;;;;5114849;28;20239;-63
2021/12/01 04:50:12;;;;;;;14.50;7.77;;;;;;;;;;5114950;28;20554;-63
2021/12/01 04:52:41;;;;;;;20.57;10.67;;;;;;;;;;5114854;28;20217;-63
2021/12/01 04:55:09;;;;;;;26.30;15.17;;;;;;;;;;5114907;28;20202;-63
2021/12/01 04:57:41;;;;;;;18.03;10.00;;;;;;;;;;5114607;28;20202;-66
2021/12/01 05:00:12;;;;;;;14.80;7.17;;;;;;;;;;5105707;28;20550;-66
2021/12/01 05:02:40;;;;;;;20.33;11.17;;;;;;;;;;5091737;28;20238;-69
2021/12/01 05:05:08;;;;;;;24.50;12.37;;;;;;;;;;5092706;28;20846;-61
2021/12/01 05:07:35;;;;;;;14.93;8.57;;;;;;;;;;5092593;28;20309;-69
2021/12/01 05:10:04;;;;;;;17.53;10.67;;;;;;;;;;5080837;28;20261;-63
2021/12/01 05:12:31;;;;;;;13.97;8.43;;;;;;;;;;5092406;28;20219;-63
2021/12/01 05:14:59;;;;;;;18.77;9.20;;;;;;;;;;5093123;28;20594;-64
2021/12/01 05:17:26;;;;;;;11.60;6.70;;;;;;;;;;5092008;28;20233;-64
2021/12/01 05:19:53;;;;;;;17.83;9.73;;;;;;;;;;5092659;28;20229;-64
2021/12/01 05:22:21;;;;;;;11.90;7.57;;;;;;;;;;5092359;28;20273;-63
2021/12/01 05:24:48;;;;;;;19.57;9.80;;;;;;;;;;5093107;28;20272;-65
2021/12/01 05:27:15;;;;;;;27.90;12.53;;;;;;;;;;5092402;28;20222;-65
2021/12/01 05:29:42;;;;;;;19.57;10.63;;;;;;;;;;5092534;28;20226;-66
2021/12/01 05:32:10;;;;;;;12.50;7.60;;;;;;;;;;5091884;28;20234;-65
2021/12/01 05:34:37;;;;;;;18.00;9.53;;;;;;;;;;5092440;28;20262;-64
2021/12/01 05:37:04;;;;;;;24.17;9.83;;;;;;;;;;5092407;28;20316;-64
2021/12/01 05:39:32;;;;;;;27.67;15.00;;;;;;;;;;5092348;28;20218;-64
2021/12/01 05:41:59;;;;;;;26.93;16.43;;;;;;;;;;5092554;28;20304;-64
2021/12/01 05:44:29;;;;;;;27.77;15.33;;;;;;;;;;5092601;28;20240;-65
2021/12/01 05:46:57;;;;;;;20.43;11.00;;;;;;;;;;5091858;28;20689;-63
2021/12/01 05:49:25;;;;;;;25.80;12.73;;;;;;;;;;5074779;28;20226;-64
2021/12/01 05:51:56;;;;;;;26.43;17.03;;;;;;;;;;5092369;28;20706;-66
2021/12/01 05:54:24;;;;;;;16.50;8.73;;;;;;;;;;5092104;28;20246;-68
2021/12/01 05:56:52;;;;;;;26.47;14.77;;;;;;;;;;5092143;28;20637;-68
2021/12/01 05:59:19;;;;;;;28.37;15.87;;;;;;;;;;5092270;28;20228;-69
2021/12/01 06:01:47;;;;;;;22.83;13.40;;;;;;;;;;5091550;28;20265;-69
2021/12/01 06:04:14;;;;;;;25.03;16.07;;;;;;;;;;5091925;28;20247;-67
2021/12/01 06:06:41;;;;;;;24.93;14.47;;;;;;;;;;5091890;28;20256;-63
2021/12/01 06:09:09;;;;;;;23.50;15.30;;;;;;;;;;5092147;28;20222;-64
2021/12/01 06:11:36;;;;;;;16.83;9.90;;;;;;;;;;5091562;28;20769;-64
2021/12/01 06:14:04;;;;;;;27.37;15.27;;;;;;;;;;5074467;28;20322;-64
2021/12/01 06:16:31;;;;;;;16.50;8.60;;;;;;;;;;5091301;28;20222;-65
2021/12/01 06:18:59;;;;;;;31.43;18.87;;;;;;;;;;5092213;28;20325;-64
2021/12/01 06:21:26;;;;;;;37.33;21.30;;;;;;;;;;5091986;28;20222;-65
2021/12/01 06:23:53;;;;;;;67.33;31.70;;;;;;;;;;5090429;28;20226;-66
2021/12/01 06:26:21;;;;;;;54.87;28.83;;;;;;;;;;5092601;28;20202;-64
2021/12/01 06:28:48;;;;;;;57.87;32.00;;;;;;;;;;5092695;28;20198;-65
2021/12/01 06:31:15;;;;;;;52.33;29.47;;;;;;;;;;5097131;28;20225;-62
2021/12/01 06:33:42;;;;;;;49.83;28.37;;;;;;;;;;5100745;28;20214;-62
2021/12/01 06:36:09;;;;;;;43.90;28.17;;;;;;;;;;5099084;28;20187;-64
2021/12/01 06:38:39;;;;;;;45.20;26.70;;;;;;;;;;5098631;28;20193;-64
2021/12/01 06:41:06;;;;;;;41.90;25.87;;;;;;;;;;5065064;28;20650;-64
2021/12/01 06:43:34;;;;;;;42.50;25.83;;;;;;;;;;5098904;28;20203;-63
2021/12/01 06:46:02;;;;;;;38.57;24.43;;;;;;;;;;5096583;28;20194;-67
2021/12/01 06:48:29;;;;;;;31.87;19.83;;;;;;;;;;5081168;28;20191;-65
2021/12/01 06:50:57;;;;;;;30.47;19.63;;;;;;;;;;5099001;28;20190;-65
2021/12/01 06:53:26;;;;;;;24.70;15.40;;;;;;;;;;5098141;28;20260;-63
2021/12/01 06:55:54;;;;;;;36.00;21.10;;;;;;;;;;5098837;28;20650;-62
2021/12/01 06:58:21;;;;;;;32.17;20.73;;;;;;;;;;5096154;28;20674;-63
2021/12/01 07:00:48;;;;;;;28.30;17.90;;;;;;;;;;5098979;28;20197;-63
2021/12/01 07:03:16;;;;;;;27.17;17.43;;;;;;;;;;5098609;28;20183;-65
2021/12/01 07:05:44;;;;;;;21.37;13.10;;;;;;;;;;5098463;28;20233;-65
2021/12/01 07:08:12;;;;;;;29.07;20.20;;;;;;;;;;5098725;28;20195;-67
2021/12/01 07:10:39;;;;;;;19.20;10.73;;;;;;;;;;5095873;28;20194;-65
2021/12/01 07:13:06;;;;;;;27.23;14.57;;;;;;;;;;5098540;28;20191;-64
2021/12/01 07:15:33;;;;;;;19.27;11.87;;;;;;;;;;5098810;28;20194;-64
2021/12/01 07:18:01;;;;;;;29.37;18.77;;;;;;;;;;5095991;28;20193;-64
2021/12/01 07:20:28;;;;;;;16.00;9.83;;;;;;;;;;5098665;28;20717;-63
2021/12/01 07:22:56;;;;;;;32.73;20.97;;;;;;;;;;5098595;28;20187;-65
2021/12/01 07:25:24;;;;;;;30.20;19.27;;;;;;;;;;5098439;28;20187;-63
2021/12/01 07:27:51;;;;;;;40.63;23.87;;;;;;;;;;5098357;28;20199;-63
2021/12/01 07:30:18;;;;;;;34.57;22.03;;;;;;;;;;5098393;28;20201;-62
2021/12/01 07:32:46;;;;;;;32.93;22.03;;;;;;;;;;5098642;28;20191;-63
2021/12/01 07:35:13;;;;;;;34.03;21.10;;;;;;;;;;5098378;28;20264;-62
2021/12/01 07:37:41;;;;;;;45.30;25.70;;;;;;;;;;5095909;28;20239;-63
2021/12/01 07:40:08;;;;;;;35.77;23.10;;;;;;;;;;5098633;28;20190;-64
2021/12/01 07:42:36;;;;;;;34.47;19.97;;;;;;;;;;5079083;28;20191;-63
2021/12/01 07:45:05;;;;;;;35.00;21.73;;;;;;;;;;5095163;28;20202;-63
2021/12/01 07:47:32;;;;;;;32.17;19.37;;;;;;;;;;5077235;28;20194;-63
2021/12/01 07:49:59;;;;;;;61.83;28.47;;;;;;;;;;5095042;28;20198;-63
2021/12/01 07:52:27;;;;;;;49.20;24.70;;;;;;;;;;5095415;28;20195;-62
2021/12/01 07:54:54;;;;;;;50.00;27.60;;;;;;;;;;5094826;28;20226;-63
2021/12/01 07:57:21;;;;;;;58.73;29.67;;;;;;;;;;5094758;28;20677;-63
2021/12/01 07:59:49;;;;;;;73.57;34.27;;;;;;;;;;5094789;28;20711;-64
2021/12/01 08:02:16;;;;;;;61.60;32.07;;;;;;;;;;5095037;28;20210;-63
2021/12/01 08:04:44;;;;;;;51.10;28.07;;;;;;;;;;5094720;28;20268;-67
2021/12/01 08:07:11;;;;;;;54.73;28.70;;;;;;;;;;5094946;28;20684;-62
2021/12/01 08:09:39;;;;;;;35.27;22.00;;;;;;;;;;5077375;28;20207;-63
2021/12/01 08:12:07;;;;;;;46.40;26.40;;;;;;;;;;5095265;28;20221;-65
2021/12/01 08:14:35;;;;;;;51.03;27.20;;;;;;;;;;5094906;28;20231;-67
2021/12/01 08:17:02;;;;;;;44.77;24.73;;;;;;;;;;5094336;28;20568;-63
2021/12/01 08:19:29;;;;;;;40.47;24.07;;;;;;;;;;5094708;28;20252;-65
2021/12/01 08:21:57;;;;;;;40.17;23.40;;;;;;;;;;5094474;28;20237;-66
2021/12/01 08:24:24;;;;;;;45.17;25.80;;;;;;;;;;5094669;28;20197;-65
2021/12/01 08:26:51;;;;;;;44.53;26.03;;;;;;;;;;5094630;28;20282;-64
2021/12/01 08:29:19;;;;;;;33.00;18.33;;;;;;;;;;5094476;28;20194;-63
2021/12/01 08:31:46;;;;;;;26.80;14.70;;;;;;;;;;5094126;28;20546;-64
2021/12/01 08:34:13;;;;;;;30.27;15.60;;;;;;;;;;5094079;28;20218;-65
2021/12/01 08:36:41;;;;;;;46.00;24.67;;;;;;;;;;5091431;28;20201;-65
2021/12/01 08:39:08;;;;;;;30.90;19.53;;;;;;;;;;5076232;28;20240;-63
2021/12/01 08:41:36;;;;;;;35.73;21.07;;;;;;;;;;5075797;28;20715;-63
2021/12/01 08:44:04;;;;;;;36.50;22.27;;;;;;;;;;5075834;28;20195;-64
2021/12/01 08:46:31;;;;;;;35.60;21.80;;;;;;;;;;5093828;28;20195;-63
2021/12/01 08:48:59;;;;;;;39.93;21.33;;;;;;;;;;5093864;28;20191;-65
2021/12/01 08:51:27;;;;;;;42.57;22.83;;;;;;;;;;5094159;28;20189;-64
2021/12/01 08:53:54;;;;;;;43.00;22.67;;;;;;;;;;5093004;28;20651;-63
2021/12/01 08:56:22;;;;;;;33.87;19.67;;;;;;;;;;5093683;28;20193;-64
2021/12/01 08:58:49;;;;;;;24.33;12.57;;;;;;;;;;5093981;28;20195;-63
2021/12/01 09:01:16;;;;;;;24.90;13.77;;;;;;;;;;5093833;28;20195;-66
2021/12/01 09:03:44;;;;;;;22.93;13.00;;;;;;;;;;5059268;28;20599;-67
2021/12/01 09:06:11;;;;;;;32.90;19.23;;;;;;;;;;5093629;28;20216;-64
2021/12/01 09:08:39;;;;;;;35.47;19.47;;;;;;;;;;5093771;28;20191;-65
2021/12/01 09:11:07;;;;;;;30.37;17.13;;;;;;;;;;5075955;28;20241;-62
2021/12/01 09:13:36;;;;;;;27.30;16.00;;;;;;;;;;5093452;28;20244;-62
2021/12/01 09:16:03;;;;;;;25.97;16.20;;;;;;;;;;5093736;28;20247;-65
2021/12/01 09:18:33;;;;;;;29.50;17.07;;;;;;;;;;5093107;28;20205;-66
2021/12/01 09:21:02;;;;;;;36.73;19.53;;;;;;;;;;5093549;28;20190;-64
2021/12/01 09:23:29;;;;;;;65.73;24.10;;;;;;;;;;5075256;28;20221;-67
2021/12/01 09:25:57;;;;;;;32.90;16.87;;;;;;;;;;5093234;28;20257;-66
2021/12/01 09:28:26;;;;;;;29.97;16.80;;;;;;;;;;5072696;28;20199;-65
2021/12/01 09:30:55;;;;;;;22.50;13.13;;;;;;;;;;5075230;28;20190;-66
2021/12/01 09:33:24;;;;;;;26.13;14.03;;;;;;;;;;5092980;28;20634;-67
2021/12/01 09:35:52;;;;;;;24.93;13.73;;;;;;;;;;5092949;28;20218;-63
2021/12/01 09:38:19;;;;;;;37.00;16.80;;;;;;;;;;5074959;28;20213;-64
2021/12/01 09:40:51;;;;;;;36.73;20.83;;;;;;;;;;5092917;28;20198;-67
2021/12/01 09:43:22;;;;;;;44.33;18.80;;;;;;;;;;5093202;28;20179;-64
2021/12/01 09:45:49;;;;;;;22.23;14.20;;;;;;;;;;5073053;28;20186;-65
2021/12/01 09:48:18;;;;;;;31.37;15.77;;;;;;;;;;5092966;28;20203;-65
2021/12/01 09:51:04;;;;;;;31.83;18.13;;;;;;;;;;5092720;28;20179;-65
2021/12/01 09:53:32;;;;;;;24.80;15.57;;;;;;;;;;5092893;28;20201;-64
2021/12/01 09:55:59;;;;;;;45.53;18.70;;;;;;;;;;5092590;28;20222;-65
2021/12/01 09:58:30;;;;;;;87.97;27.77;;;;;;;;;;5092728;28;20285;-63
2021/12/01 10:01:02;;;;;;;72.80;27.60;;;;;;;;;;5093335;28;20583;-64
2021/12/01 10:03:30;;;;;;;74.63;28.77;;;;;;;;;;5090812;28;20646;-64
2021/12/01 10:06:14;;;;;;;60.10;25.33;;;;;;;;;;5091696;28;20218;-63
2021/12/01 10:08:54;;;;;;;51.27;21.60;;;;;;;;;;5092505;28;20274;-63
2021/12/01 10:11:27;;;;;;;45.40;22.47;;;;;;;;;;5068399;28;20655;-66
2021/12/01 10:14:03;;;;;;;44.17;21.67;;;;;;;;;;5061807;28;20227;-64
2021/12/01 10:16:33;;;;;;;46.90;19.37;;;;;;;;;;5092024;28;20252;-63
2021/12/01 10:19:08;;;;;;;43.30;17.93;;;;;;;;;;5091726;28;20698;-65
2021/12/01 10:21:38;;;;;;;149.60;48.70;;;;;;;;;;5091692;28;20338;-63
2021/12/01 10:24:12;;;;;;;55.90;29.23;;;;;;;;;;5089617;28;20227;-63
2021/12/01 10:26:45;;;;;;;33.47;19.67;;;;;;;;;;5090884;28;20275;-64
2021/12/01 10:29:34;;;;;;;34.23;18.50;;;;;;;;;;5092417;28;20222;-65
2021/12/01 10:32:14;;;;;;;36.10;21.97;;;;;;;;;;5092367;28;20273;-63
2021/12/01 10:34:47;;;;;;;24.57;15.63;;;;;;;;;;5092286;28;20602;-62
2021/12/01 10:37:23;;;;;;;37.00;18.47;;;;;;;;;;5074634;28;20234;-64
2021/12/01 10:40:10;;;;;;;28.63;16.20;;;;;;;;;;5092316;28;20228;-66
2021/12/01 10:42:57;;;;;;;31.43;15.60;;;;;;;;;;5091789;28;20226;-65
2021/12/01 10:45:27;;;;;;;45.23;19.10;;;;;;;;;;5092260;28;20697;-64
2021/12/01 10:47:55;;;;;;;49.80;24.97;;;;;;;;;;5074078;28;20242;-64
2021/12/01 10:50:24;;;;;;;55.13;26.10;;;;;;;;;;5092134;28;20308;-64
2021/12/01 10:53:02;;;;;;;47.23;27.50;;;;;;;;;;5091659;28;20226;-63
2021/12/01 10:55:30;;;;;;;30.10;19.13;;;;;;;;;;5089674;28;20237;-67
2021/12/01 10:58:02;;;;;;;40.13;23.30;;;;;;;;;;5091031;28;20245;-63
2021/12/01 11:00:39;;;;;;;31.87;21.43;;;;;;;;;;5089719;28;20211;-65
2021/12/01 11:03:16;;;;;;;33.40;23.50;;;;;;;;;;5088867;28;20589;-65
2021/12/01 11:05:50;;;;;;;38.70;21.57;;;;;;;;;;5091437;28;20230;-62
2021/12/01 11:08:25;;;;;;;87.87;42.03;;;;;;;;;;5091459;28;20240;-63
2021/12/01 11:10:59;;;;;;;59.57;25.57;;;;;;;;;;5089674;28;20223;-66
2021/12/01 11:13:27;;;;;;;61.20;21.97;;;;;;;;;;5088866;28;20231;-63
2021/12/01 11:15:57;;;;;;;49.60;19.33;;;;;;;;;;5073487;28;20661;-64
2021/12/01 11:18:58;;;;;;;26.97;17.23;;;;;;;;;;5094681;28;20237;-63
2021/12/01 11:21:25;;;;;;;20.00;12.30;;;;;;;;;;5092933;28;20264;-62
2021/12/01 11:23:56;;;;;;;34.47;16.90;;;;;;;;;;5095092;28;20737;-62
2021/12/01 11:26:26;;;;;;;23.30;10.83;;;;;;;;;;5093676;28;20218;-66
2021/12/01 11:28:56;;;;;;;39.10;19.70;;;;;;;;;;5075373;28;20184;-64
2021/12/01 11:31:29;;;;;;;32.47;24.97;;;;;;;;;;5075976;28;20199;-61
2021/12/01 11:33:58;;;;;;;25.93;15.33;;;;;;;;;;5076047;28;20188;-63
2021/12/01 11:36:31;;;;;;;19.83;11.33;;;;;;;;;;5075511;28;20253;-62
2021/12/01 11:39:01;;;;;;;19.17;11.97;;;;;;;;;;5075842;28;20206;-62
2021/12/01 11:41:28;;;;;;;18.10;11.90;;;;;;;;;;5075969;28;20219;-61
2021/12/01 11:43:56;;;;;;;20.20;12.17;;;;;;;;;;5057642;28;20198;-64
2021/12/01 11:46:24;;;;;;;21.80;12.03;;;;;;;;;;5057783;28;20191;-66
2021/12/01 11:48:54;;;;;;;19.03;11.10;;;;;;;;;;5075375;28;20732;-63
2021/12/01 11:51:24;;;;;;;23.23;12.80;;;;;;;;;;5075578;28;20230;-64
2021/12/01 11:53:55;;;;;;;26.33;14.53;;;;;;;;;;5057619;28;20969;-61
2021/12/01 11:56:29;;;;;;;23.20;12.57;;;;;;;;;;5075402;28;20215;-63
2021/12/01 11:59:02;;;;;;;19.70;11.47;;;;;;;;;;5075303;28;20196;-63
2021/12/01 12:01:36;;;;;;;18.43;10.70;;;;;;;;;;5075176;28;20714;-65
2021/12/01 12:04:05;;;;;;;19.60;11.73;;;;;;;;;;5074875;28;20188;-63
2021/12/01 12:06:55;;;;;;;18.53;11.97;;;;;;;;;;5075007;28;20183;-65
2021/12/01 12:09:24;;;;;;;23.03;12.43;;;;;;;;;;5073855;28;20184;-61
2021/12/01 12:12:19;;;;;;;28.13;13.73;;;;;;;;;;5075025;28;20207;-62
2021/12/01 12:14:48;;;;;;;36.97;19.27;;;;;;;;;;5075043;28;20227;-65
2021/12/01 12:17:19;;;;;;;22.07;11.47;;;;;;;;;;5074964;28;20195;-63
2021/12/01 12:19:54;;;;;;;16.90;10.87;;;;;;;;;;5074948;28;20192;-67
2021/12/01 12:22:44;;;;;;;24.20;12.97;;;;;;;;;;5074912;28;20249;-63
2021/12/01 12:25:48;;;;;;;20.50;10.90;;;;;;;;;;5073710;28;20187;-65
2021/12/01 12:28:37;;;;;;;24.40;10.80;;;;;;;;;;5074168;28;20208;-63
2021/12/01 12:31:24;;;;;;;20.33;10.80;;;;;;;;;;5074659;28;20681;-65
2021/12/01 12:33:57;;;;;;;35.23;18.60;;;;;;;;;;5074590;28;20191;-63
2021/12/01 12:36:57;;;;;;;55.00;23.03;;;;;;;;;;5074580;28;20265;-64
2021/12/01 12:39:32;;;;;;;31.13;16.60;;;;;;;;;;5074636;28;20206;-69
2021/12/01 12:42:08;;;;;;;34.33;18.37;;;;;;;;;;5074678;28;20233;-66
2021/12/01 12:44:48;;;;;;;33.07;18.00;;;;;;;;;;5074569;28;20191;-65
2021/12/01 12:47:26;;;;;;;30.60;19.13;;;;;;;;;;5074148;28;20547;-64
2021/12/01 12:49:59;;;;;;;41.10;21.10;;;;;;;;;;5069029;28;20226;-64
2021/12/01 12:52:26;;;;;;;37.37;20.73;;;;;;;;;;5094438;28;20241;-64
2021/12/01 12:54:59;;;;;;;43.00;31.30;;;;;;;;;;5075612;28;20226;-65
2021/12/01 12:57:46;;;;;;;30.27;20.27;;;;;;;;;;5075987;28;20716;-65
2021/12/01 13:00:33;;;;;;;36.00;19.53;;;;;;;;;;5093685;28;20697;-65
2021/12/01 13:03:24;;;;;;;27.63;17.70;;;;;;;;;;5075318;28;20229;-67
2021/12/01 13:06:00;;;;;;;27.63;16.93;;;;;;;;;;5080529;28;20641;-63
2021/12/01 13:08:42;;;;;;;31.73;18.33;;;;;;;;;;5094329;28;20199;-64
2021/12/01 13:11:12;;;;;;;30.17;17.57;;;;;;;;;;5093460;28;20228;-62
2021/12/01 13:13:44;;;;;;;28.77;16.83;;;;;;;;;;5092289;28;20187;-67
2021/12/01 13:16:15;;;;;;;24.30;15.07;;;;;;;;;;5086257;28;20227;-66
2021/12/01 13:18:45;;;;;;;41.27;23.70;;;;;;;;;;5061451;28;20326;-66
2021/12/01 13:21:16;;;;;;;48.83;20.03;;;;;;;;;;5074752;28;20713;-66
2021/12/01 13:23:47;;;;;;;46.53;20.90;;;;;;;;;;5092184;28;20295;-66
2021/12/01 13:26:21;;;;;;;30.70;16.57;;;;;;;;;;5092480;28;20226;-64
2021/12/01 13:28:53;;;;;;;53.20;22.30;;;;;;;;;;5092511;28;20239;-65
2021/12/01 13:31:28;;;;;;;50.57;22.70;;;;;;;;;;5092831;28;20698;-66
2021/12/01 13:34:03;;;;;;;43.77;20.47;;;;;;;;;;5076902;28;20224;-67
2021/12/01 13:36:49;;;;;;;44.03;20.20;;;;;;;;;;5075847;28;20287;-68
2021/12/01 13:39:19;;;;;;;101.50;49.13;;;;;;;;;;5074789;28;20295;-69
2021/12/01 13:41:55;;;;;;;66.93;23.80;;;;;;;;;;5107373;28;20222;-66
2021/12/01 13:44:48;;;;;;;59.57;23.73;;;;;;;;;;5093639;28;20283;-66
2021/12/01 13:47:19;;;;;;;59.73;25.87;;;;;;;;;;5092208;28;20672;-69
2021/12/01 13:49:51;;;;;;;42.90;19.10;;;;;;;;;;5092471;28;20227;-70
2021/12/01 13:52:33;;;;;;;38.00;19.60;;;;;;;;;;5057748;28;20221;-63
2021/12/01 13:55:25;;;;;;;53.70;20.37;;;;;;;;;;5092584;28;20238;-67
2021/12/01 13:57:54;;;;;;;103.37;30.17;;;;;;;;;;5074288;28;20284;-68
2021/12/01 14:00:34;;;;;;;123.37;54.03;;;;;;;;;;5074970;28;20227;-65
2021/12/01 14:03:03;;;;;;;65.73;24.03;;;;;;;;;;5091201;28;20253;-65
2021/12/01 14:05:32;;;;;;;77.63;36.73;;;;;;;;;;5091634;28;20288;-64
2021/12/01 14:08:25;;;;;;;49.67;22.97;;;;;;;;;;5074142;28;20661;-65
2021/12/01 14:10:55;;;;;;;51.97;23.20;;;;;;;;;;5051705;28;20218;-64
2021/12/01 14:13:24;;;;;;;73.50;36.17;;;;;;;;;;5091964;28;20223;-65
2021/12/01 14:15:52;;;;;;;109.90;35.33;;;;;;;;;;5074322;28;20603;-65
2021/12/01 14:18:21;;;;;;;86.73;27.53;;;;;;;;;;5073827;28;20238;-65
2021/12/01 14:21:11;;;;;;;81.60;67.43;;;;;;;;;;5074358;28;20229;-65
2021/12/01 14:23:44;;;;;;;82.57;36.87;;;;;;;;;;5091958;28;20693;-63
2021/12/01 14:26:12;;;;;;;42.50;20.50;;;;;;;;;;5092328;28;20599;-66
2021/12/01 14:28:41;;;;;;;37.30;19.10;;;;;;;;;;5074294;28;20288;-65
2021/12/01 14:31:09;;;;;;;38.80;20.07;;;;;;;;;;5091901;28;20222;-63
2021/12/01 14:33:36;;;;;;;25.67;16.07;;;;;;;;;;5073944;28;20262;-65
2021/12/01 14:36:07;;;;;;;26.50;15.57;;;;;;;;;;5073937;28;20227;-67
2021/12/01 14:38:35;;;;;;;30.50;16.67;;;;;;;;;;5091881;28;20238;-64
2021/12/01 14:41:07;;;;;;;24.93;14.77;;;;;;;;;;5092180;28;20244;-65
2021/12/01 14:43:36;;;;;;;66.40;30.60;;;;;;;;;;5092002;28;20230;-65